createdAt,value
2017-09-19T00:02:27.911Z,80.30
2017-09-19T00:05:38.013Z,80.40
2017-09-19T00:08:48.088Z,80.20
2017-09-19T00:11:58.356Z,80.10
2017-09-19T00:15:09.062Z,80.30
2017-09-19T00:18:19.550Z,81.20
2017-09-19T00:21:29.356Z,82.10
2017-09-19T00:24:39.742Z,81.40
2017-09-19T00:27:50.059Z,81.70
2017-09-19T00:31:00.466Z,80.90
2017-09-19T00:34:11.245Z,81.50
2017-09-19T00:37:21.306Z,81.50
2017-09-19T00:40:31.095Z,81.50
2017-09-19T00:43:41.622Z,81.10
2017-09-19T00:46:51.847Z,81.20
2017-09-19T00:50:03.234Z,81.00
2017-09-19T00:53:13.071Z,81.00
2017-09-19T00:56:23.111Z,81.00
2017-09-19T00:59:33.147Z,81.40
2017-09-19T01:02:43.062Z,82.00
2017-09-19T01:05:52.919Z,82.10
2017-09-19T01:09:03.066Z,82.60
2017-09-19T01:12:13.062Z,82.30
2017-09-19T01:15:23.809Z,82.00
2017-09-19T01:18:34.539Z,81.70
2017-09-19T01:21:44.353Z,82.30
2017-09-19T01:24:54.485Z,82.60
2017-09-19T01:28:04.098Z,82.40
2017-09-19T01:31:14.291Z,82.00
2017-09-19T01:34:24.658Z,81.70
2017-09-19T01:37:34.785Z,81.40
2017-09-19T01:40:46.179Z,81.70
2017-09-19T01:43:56.397Z,81.30
2017-09-19T01:47:06.540Z,81.70
2017-09-19T01:50:16.513Z,81.40
2017-09-19T01:53:29.267Z,81.50
2017-09-19T01:56:39.098Z,81.50
2017-09-19T01:59:49.180Z,81.40
2017-09-19T02:02:59.811Z,81.40
2017-09-19T02:06:10.230Z,81.80
2017-09-19T02:09:20.430Z,81.90
2017-09-19T02:12:31.178Z,81.70
2017-09-19T02:15:41.354Z,81.60
2017-09-19T02:18:51.526Z,82.20
2017-09-19T02:22:02.333Z,82.00
2017-09-19T02:25:12.663Z,81.80
2017-09-19T02:28:22.897Z,81.70
2017-09-19T02:31:33.017Z,81.90
2017-09-19T02:34:42.750Z,81.70
2017-09-19T02:37:53.418Z,82.10
2017-09-19T02:41:04.235Z,82.20
2017-09-19T02:44:14.872Z,82.20
2017-09-19T02:47:24.935Z,81.80
2017-09-19T02:50:35.855Z,81.60
2017-09-19T02:53:46.515Z,81.80
2017-09-19T02:56:57.284Z,82.30
2017-09-19T03:00:07.592Z,81.80
2017-09-19T03:03:17.564Z,82.00
2017-09-19T03:06:28.316Z,82.40
2017-09-19T03:09:38.612Z,82.30
2017-09-19T03:12:48.987Z,81.70
2017-09-19T03:15:59.465Z,81.90
2017-09-19T03:19:09.751Z,81.80
2017-09-19T03:22:20.576Z,82.40
2017-09-19T03:25:30.762Z,82.20
2017-09-19T03:28:40.830Z,82.10
2017-09-19T03:31:51.566Z,82.80
2017-09-19T03:35:01.461Z,83.70
2017-09-19T03:38:11.831Z,83.50
2017-09-19T03:41:22.503Z,83.20
2017-09-19T03:44:33.577Z,82.90
2017-09-19T03:47:43.645Z,82.90
2017-09-19T03:50:53.875Z,82.80
2017-09-19T03:54:03.923Z,82.50
2017-09-19T03:57:14.040Z,82.80
2017-09-19T04:00:24.193Z,82.80
2017-09-19T04:03:34.652Z,83.10
2017-09-19T04:06:45.152Z,82.90
2017-09-19T04:09:56.691Z,83.70
2017-09-19T04:13:06.797Z,83.60
2017-09-19T04:16:17.062Z,83.50
2017-09-19T04:19:27.730Z,83.50
2017-09-19T04:22:38.538Z,83.80
2017-09-19T04:25:48.768Z,83.30
2017-09-19T04:28:58.932Z,84.10
2017-09-19T04:32:08.574Z,83.90
2017-09-19T04:35:18.655Z,83.40
2017-09-19T04:38:29.446Z,83.70
2017-09-19T04:41:40.110Z,84.30
2017-09-19T04:44:50.115Z,84.30
2017-09-19T04:48:00.263Z,84.00
2017-09-19T04:51:11.068Z,84.20
2017-09-19T04:54:21.968Z,85.00
2017-09-19T04:57:31.863Z,84.50
2017-09-19T05:00:41.920Z,84.50
2017-09-19T05:03:52.197Z,83.90
2017-09-19T05:07:03.329Z,84.20
2017-09-19T05:10:13.665Z,84.20
2017-09-19T05:13:24.358Z,84.30
2017-09-19T05:16:34.518Z,84.40
2017-09-19T05:19:44.638Z,84.50
2017-09-19T05:22:55.799Z,84.60
2017-09-19T05:26:06.581Z,84.60
2017-09-19T05:29:17.922Z,86.00
2017-09-19T05:32:28.111Z,85.80
2017-09-19T05:35:38.447Z,85.80
2017-09-19T05:38:49.455Z,85.30
2017-09-19T05:42:00.011Z,85.20
2017-09-19T05:45:10.229Z,85.70
2017-09-19T05:48:20.648Z,86.10
2017-09-19T05:51:30.972Z,86.10
2017-09-19T05:54:41.267Z,85.80
2017-09-19T05:57:51.912Z,85.60
2017-09-19T06:01:01.897Z,85.60
2017-09-19T06:04:13.330Z,86.10
2017-09-19T06:07:23.682Z,86.10
2017-09-19T06:10:33.831Z,86.30
2017-09-19T06:13:45.254Z,85.70
2017-09-19T06:16:55.480Z,86.10
2017-09-19T06:20:05.693Z,86.30
2017-09-19T06:23:15.530Z,86.30
2017-09-19T06:26:25.398Z,86.40
2017-09-19T06:29:35.817Z,86.00
2017-09-19T06:32:46.610Z,86.60
2017-09-19T06:35:56.935Z,86.40
2017-09-19T06:39:06.873Z,86.30
2017-09-19T06:42:16.847Z,86.80
2017-09-19T06:45:27.146Z,86.30
2017-09-19T06:48:37.005Z,86.10
2017-09-19T06:51:47.455Z,86.30
2017-09-19T06:54:57.683Z,86.30
2017-09-19T06:58:08.103Z,86.70
2017-09-19T07:01:17.999Z,86.40
2017-09-19T07:04:27.885Z,86.20
2017-09-19T07:07:38.132Z,85.20
2017-09-19T07:10:48.565Z,86.50
2017-09-19T07:13:58.577Z,85.60
2017-09-19T07:17:09.296Z,85.50
2017-09-19T07:20:19.325Z,85.70
2017-09-19T07:23:29.633Z,85.40
2017-09-19T07:26:39.620Z,85.90
2017-09-19T07:29:49.775Z,85.40
2017-09-19T07:32:59.991Z,85.40
2017-09-19T07:36:10.199Z,85.50
2017-09-19T07:39:20.693Z,85.10
2017-09-19T07:42:30.882Z,84.90
2017-09-19T07:45:40.661Z,83.20
2017-09-19T07:48:51.748Z,83.30
2017-09-19T07:52:02.170Z,83.30
2017-09-19T07:55:13.726Z,82.80
2017-09-19T07:58:24.124Z,83.00
2017-09-19T08:01:34.020Z,81.60
2017-09-19T08:04:44.299Z,82.30
2017-09-19T08:07:54.341Z,82.10
2017-09-19T08:11:04.571Z,80.20
2017-09-19T08:14:14.491Z,80.50
2017-09-19T08:17:25.285Z,80.00
2017-09-19T08:20:35.890Z,80.20
2017-09-19T08:23:46.245Z,80.00
2017-09-19T08:26:56.480Z,78.50
2017-09-19T08:30:07.137Z,79.10
2017-09-19T08:33:17.907Z,76.40
2017-09-19T08:36:28.251Z,76.10
2017-09-19T08:39:38.651Z,76.40
2017-09-19T08:42:48.802Z,77.40
2017-09-19T08:45:58.648Z,75.30
2017-09-19T08:49:08.970Z,74.30
2017-09-19T08:52:19.390Z,72.80
2017-09-19T08:55:29.926Z,72.90
2017-09-19T08:58:40.264Z,72.80
2017-09-19T09:01:50.486Z,71.30
2017-09-19T09:05:00.777Z,70.20
2017-09-19T09:08:10.869Z,70.50
2017-09-19T09:11:20.621Z,72.10
2017-09-19T09:14:30.920Z,69.30
2017-09-19T09:17:41.206Z,69.10
2017-09-19T09:20:51.236Z,70.20
2017-09-19T09:24:01.333Z,69.30
2017-09-19T09:27:11.483Z,67.80
2017-09-19T09:30:21.401Z,64.10
2017-09-19T09:33:31.221Z,69.10
2017-09-19T09:36:41.307Z,66.70
2017-09-19T09:39:51.296Z,64.70
2017-09-19T09:43:01.002Z,66.00
2017-09-19T09:46:11.140Z,65.00
2017-09-19T09:49:21.199Z,66.60
2017-09-19T09:52:31.134Z,64.20
2017-09-19T09:55:41.443Z,62.90
2017-09-19T09:58:51.725Z,65.90
2017-09-19T10:02:02.056Z,66.30
2017-09-19T10:05:12.887Z,66.40
2017-09-19T10:08:22.943Z,65.50
2017-09-19T10:11:33.418Z,66.80
2017-09-19T10:14:43.379Z,62.80
2017-09-19T10:17:54.272Z,62.80
2017-09-19T10:21:04.481Z,62.80
2017-09-19T10:24:15.250Z,63.10
2017-09-19T10:27:25.502Z,63.10
2017-09-19T10:30:42.156Z,62.40
2017-09-19T10:33:54.020Z,61.40
2017-09-19T10:37:04.395Z,60.40
2017-09-19T10:40:21.841Z,61.20
2017-09-19T10:43:31.999Z,59.80
2017-09-19T10:46:42.142Z,59.50
2017-09-19T10:49:52.171Z,60.20
2017-09-19T10:53:02.195Z,58.00
2017-09-19T10:56:12.354Z,58.30
2017-09-19T10:59:22.759Z,57.10
2017-09-19T11:02:33.204Z,58.20
2017-09-19T11:05:43.467Z,56.80
2017-09-19T11:08:54.015Z,56.60
2017-09-19T11:12:03.826Z,58.00
2017-09-19T11:15:14.543Z,59.30
2017-09-19T11:18:25.213Z,58.20
2017-09-19T11:21:35.541Z,56.80
2017-09-19T11:24:46.235Z,57.30
2017-09-19T11:27:56.968Z,57.20
2017-09-19T11:31:07.099Z,56.30
2017-09-19T11:34:17.708Z,56.40
2017-09-19T11:37:27.767Z,55.90
2017-09-19T11:40:38.046Z,55.00
2017-09-19T11:43:47.941Z,55.60
2017-09-19T11:46:58.774Z,55.20
2017-09-19T11:50:09.192Z,55.10
2017-09-19T11:53:19.068Z,56.20
2017-09-19T11:56:29.595Z,54.60
2017-09-19T11:59:39.757Z,55.60
2017-09-19T12:02:51.484Z,56.90
2017-09-19T12:06:02.765Z,56.20
2017-09-19T12:09:15.343Z,57.10
2017-09-19T12:12:26.134Z,57.00
2017-09-19T12:15:47.528Z,56.60
2017-09-19T12:18:57.306Z,57.40
2017-09-19T12:22:07.480Z,56.80
2017-09-19T12:25:17.595Z,56.70
2017-09-19T12:28:27.846Z,55.80
2017-09-19T12:31:37.688Z,55.70
2017-09-19T12:34:48.082Z,55.20
2017-09-19T12:37:58.467Z,54.90
2017-09-19T12:41:08.713Z,55.60
2017-09-19T12:44:18.630Z,55.00
2017-09-19T12:47:28.993Z,54.70
2017-09-19T12:50:38.825Z,54.80
2017-09-19T12:53:49.616Z,53.70
2017-09-19T12:56:59.761Z,54.20
2017-09-19T13:00:10.227Z,53.20
2017-09-19T13:03:20.287Z,53.50
2017-09-19T13:06:30.386Z,52.10
2017-09-19T13:09:40.500Z,50.60
2017-09-19T13:12:50.542Z,52.60
2017-09-19T13:16:00.724Z,52.50
2017-09-19T13:19:11.465Z,53.30
2017-09-19T13:22:21.458Z,53.80
2017-09-19T13:25:31.455Z,54.30
2017-09-19T13:28:42.486Z,53.40
2017-09-19T13:32:03.942Z,53.30
2017-09-19T13:35:14.781Z,53.60
2017-09-19T13:38:24.546Z,53.50
2017-09-19T13:41:35.086Z,53.40
2017-09-19T13:44:45.113Z,54.50
2017-09-19T13:47:55.308Z,53.70
2017-09-19T13:51:05.354Z,53.30
2017-09-19T13:54:15.301Z,53.00
2017-09-19T13:57:25.325Z,52.70
2017-09-19T14:00:36.857Z,52.10
2017-09-19T14:03:47.023Z,52.90
2017-09-19T14:07:01.805Z,53.20
2017-09-19T14:10:12.170Z,52.70
2017-09-19T14:13:22.556Z,53.70
2017-09-19T14:16:32.677Z,52.00
2017-09-19T14:19:42.579Z,53.30
2017-09-19T14:22:52.469Z,53.40
2017-09-19T14:26:02.431Z,54.20
2017-09-19T14:29:12.866Z,53.70
2017-09-19T14:32:29.917Z,54.80
2017-09-19T14:35:39.724Z,54.20
2017-09-19T14:38:49.954Z,54.00
2017-09-19T14:42:00.394Z,53.80
2017-09-19T14:45:10.794Z,54.30
2017-09-19T14:48:21.487Z,55.00
2017-09-19T14:51:31.184Z,54.00
2017-09-19T14:54:41.936Z,54.80
2017-09-19T14:57:52.207Z,54.00
2017-09-19T15:01:03.742Z,52.30
2017-09-19T15:04:14.277Z,53.30
2017-09-19T15:07:24.338Z,53.80
2017-09-19T15:10:34.220Z,53.70
2017-09-19T15:13:43.914Z,54.10
2017-09-19T15:16:54.004Z,55.30
2017-09-19T15:20:03.731Z,55.60
2017-09-19T15:23:13.701Z,55.90
2017-09-19T15:26:24.365Z,55.60
2017-09-19T15:29:34.846Z,55.60
2017-09-19T15:32:44.811Z,55.60
2017-09-19T15:35:54.834Z,55.10
2017-09-19T15:39:05.646Z,55.00
2017-09-19T18:40:54.708Z,77.50
2017-09-19T18:44:04.657Z,77.40
2017-09-19T18:47:15.165Z,76.00
2017-09-19T18:50:25.000Z,77.20
2017-09-19T18:53:34.925Z,75.70
2017-09-19T18:56:44.918Z,78.20
2017-09-19T18:59:54.975Z,76.80
2017-09-19T19:03:04.780Z,76.50
2017-09-19T19:06:14.731Z,78.70
2017-09-19T19:09:24.826Z,79.20
2017-09-19T19:12:35.781Z,75.70
2017-09-19T19:15:46.262Z,75.70
2017-09-19T19:18:56.461Z,78.60
2017-09-19T19:22:06.651Z,77.40
2017-09-19T19:25:17.221Z,79.10
2017-09-19T19:28:27.921Z,79.00
2017-09-19T19:31:38.205Z,80.20
2017-09-19T19:34:48.305Z,79.00
2017-09-19T19:37:58.029Z,80.20
2017-09-19T19:41:07.902Z,79.60
2017-09-19T19:44:19.354Z,80.20
2017-09-19T19:47:30.331Z,78.30
2017-09-19T19:50:40.805Z,78.20
2017-09-19T19:53:51.137Z,78.90
2017-09-19T19:57:01.825Z,80.00
2017-09-19T20:00:11.785Z,80.70
2017-09-19T20:03:21.616Z,79.80
2017-09-19T20:06:31.780Z,80.50
2017-09-19T20:09:41.838Z,81.60
2017-09-19T20:12:52.093Z,80.00
2017-09-19T20:16:02.486Z,80.20
2017-09-19T20:19:12.415Z,80.10
2017-09-19T20:22:22.910Z,79.20
2017-09-19T20:25:33.718Z,78.90
2017-09-19T20:28:44.118Z,78.00
2017-09-19T20:31:53.834Z,78.30
2017-09-19T20:35:04.328Z,77.50
2017-09-19T20:38:14.395Z,77.50
2017-09-19T20:41:26.312Z,78.50
2017-09-19T20:44:36.214Z,79.20
2017-09-19T20:47:46.340Z,79.40
2017-09-19T20:50:56.451Z,79.10
2017-09-19T20:54:06.348Z,79.30
2017-09-19T20:57:16.964Z,78.60
2017-09-19T21:00:26.702Z,78.70
2017-09-19T21:03:42.209Z,78.80
2017-09-19T21:06:58.171Z,79.00
2017-09-19T21:10:13.548Z,80.10
2017-09-19T21:13:29.654Z,80.50
2017-09-19T21:16:45.607Z,81.60
2017-09-19T21:19:55.247Z,80.50
2017-09-19T21:23:06.431Z,81.60
2017-09-19T21:26:17.180Z,82.30
2017-09-19T21:29:27.401Z,82.10
2017-09-19T21:32:37.733Z,82.00
2017-09-19T21:35:47.824Z,81.60
2017-09-19T21:38:58.409Z,80.50
2017-09-19T21:42:08.891Z,79.80
2017-09-19T21:45:18.858Z,79.80
2017-09-19T21:48:28.980Z,80.40
2017-09-19T21:51:39.077Z,81.80
2017-09-19T21:54:49.543Z,81.10
2017-09-19T21:57:59.689Z,82.20
2017-09-19T22:01:09.803Z,81.30
2017-09-19T22:04:20.021Z,82.00
2017-09-19T22:07:30.675Z,82.10
2017-09-19T22:10:41.185Z,81.40
2017-09-19T22:13:51.050Z,81.30
2017-09-19T22:17:00.887Z,82.80
2017-09-19T22:20:11.215Z,82.60
2017-09-19T22:23:21.998Z,82.60
2017-09-19T22:26:31.883Z,82.40
2017-09-19T22:29:42.019Z,81.70
2017-09-19T22:32:52.329Z,82.30
2017-09-19T22:36:03.354Z,83.20
2017-09-19T22:39:13.687Z,83.20
2017-09-19T22:42:24.221Z,82.00
2017-09-19T22:45:36.843Z,82.50
2017-09-19T22:48:46.674Z,82.20
2017-09-19T22:51:56.754Z,84.00
2017-09-19T22:55:07.578Z,83.10
2017-09-19T22:58:17.641Z,83.10
2017-09-19T23:01:27.974Z,83.40
2017-09-19T23:04:38.917Z,82.40
2017-09-19T23:07:49.127Z,82.40
2017-09-19T23:10:59.213Z,84.70
2017-09-19T23:14:11.422Z,84.20
2017-09-19T23:17:21.689Z,85.20
2017-09-19T23:20:31.732Z,86.60
2017-09-19T23:23:41.517Z,85.40
2017-09-19T23:26:51.953Z,86.70
2017-09-19T23:30:02.087Z,86.60
2017-09-19T23:33:12.396Z,86.60
2017-09-19T23:36:22.481Z,86.20
2017-09-19T23:39:33.120Z,86.30
2017-09-19T23:42:43.124Z,87.10
2017-09-19T23:45:53.551Z,85.50
2017-09-19T23:49:03.866Z,85.40
2017-09-19T23:52:14.590Z,85.70
2017-09-19T23:55:24.486Z,84.50
2017-09-19T23:58:35.543Z,86.10
